Time;durP1;ratioP1;P1;durP2;ratioP2;P2;SDS_P1;SDS_P2;PMS_P1;PMS_P2;Temp;Humidity;BMP_temperature;BMP_pressure;BME280_temperature;BME280_humidity;BME280_pressure;Samples;Min_cycle;Max_cycle;Signal;HPM_P1;HPM_P2
2022/06/15 00:00:45;;;;;;;5.57;5.05;;;11.30;99.90;;;;;;5091617;28;20027;-52
2022/06/15 00:03:12;;;;;;;10.50;5.90;;;11.30;99.90;;;;;;5091570;28;20571;-51
2022/06/15 00:05:39;;;;;;;6.95;5.00;;;11.30;99.90;;;;;;5091590;28;20024;-53
2022/06/15 00:08:05;;;;;;;6.65;5.35;;;11.30;99.90;;;;;;5091317;28;20028;-51
2022/06/15 00:10:32;;;;;;;6.40;5.57;;;11.30;99.90;;;;;;5090447;28;20024;-54
2022/06/15 00:12:58;;;;;;;7.95;6.72;;;11.30;99.90;;;;;;5091584;28;20460;-51
2022/06/15 00:15:24;;;;;;;6.85;6.10;;;11.30;99.90;;;;;;5090221;28;20395;-53
2022/06/15 00:17:50;;;;;;;8.88;6.35;;;11.30;99.90;;;;;;5091395;28;20016;-50
2022/06/15 00:20:15;;;;;;;10.23;5.68;;;11.30;99.90;;;;;;5091313;28;20526;-53
2022/06/15 00:22:41;;;;;;;14.80;5.68;;;11.30;99.90;;;;;;5091527;28;20111;-55
2022/06/15 00:25:09;;;;;;;8.23;5.95;;;11.30;99.90;;;;;;5094301;28;20494;-53
2022/06/15 00:27:35;;;;;;;11.90;5.80;;;11.30;99.90;;;;;;5094554;28;20028;-51
2022/06/15 00:30:01;;;;;;;6.25;5.20;;;11.30;99.90;;;;;;5095324;28;20387;-55
2022/06/15 00:32:27;;;;;;;5.63;4.90;;;11.20;99.90;;;;;;5095065;28;20367;-54
2022/06/15 00:34:52;;;;;;;8.38;5.28;;;11.20;99.90;;;;;;5093971;28;20026;-51
2022/06/15 00:37:18;;;;;;;8.20;4.82;;;11.10;99.90;;;;;;5094360;28;20160;-51
2022/06/15 00:39:44;;;;;;;7.97;5.13;;;11.10;99.90;;;;;;5095154;28;20098;-54
2022/06/15 00:42:20;;;;;;;7.03;5.55;;;11.00;99.90;;;;;;5095330;28;20028;-56
2022/06/15 00:44:45;;;;;;;6.43;5.35;;;11.00;99.90;;;;;;5095023;28;20035;-51
2022/06/15 00:47:18;;;;;;;9.43;5.65;;;10.90;99.90;;;;;;5094115;28;20036;-51
2022/06/15 00:49:53;;;;;;;10.10;5.47;;;10.90;99.90;;;;;;5093796;28;20020;-52
2022/06/15 00:52:32;;;;;;;6.57;5.75;;;10.80;99.90;;;;;;5094433;28;20035;-51
2022/06/15 00:54:58;;;;;;;9.48;5.95;;;10.80;99.90;;;;;;5091728;28;20020;-52
2022/06/15 00:57:26;;;;;;;12.07;5.20;;;10.80;99.90;;;;;;5092024;28;20359;-54
2022/06/15 00:59:58;;;;;;;10.68;5.55;;;10.80;99.90;;;;;;5092727;28;20119;-52
2022/06/15 01:02:26;;;;;;;10.80;6.60;;;10.80;99.90;;;;;;5092770;28;20032;-55
2022/06/15 01:05:07;;;;;;;7.68;5.32;;;10.80;99.90;;;;;;5092727;28;20538;-55
2022/06/15 01:08:09;;;;;;;10.18;5.95;;;10.80;99.90;;;;;;5092927;28;20036;-55
2022/06/15 01:10:56;;;;;;;8.43;6.05;;;10.80;99.90;;;;;;5095015;28;20024;-53
2022/06/15 01:13:37;;;;;;;9.00;5.40;;;10.80;99.90;;;;;;5094787;28;20020;-52
2022/06/15 01:16:26;;;;;;;10.63;4.85;;;10.80;99.90;;;;;;5092237;28;20436;-52
2022/06/15 01:19:10;;;;;;;11.27;6.28;;;10.80;99.90;;;;;;5094746;28;20020;-51
2022/06/15 01:22:10;;;;;;;7.88;5.20;;;10.70;99.90;;;;;;5094221;28;20032;-51
2022/06/15 01:24:56;;;;;;;9.48;5.70;;;10.70;99.90;;;;;;5094817;28;20099;-53
2022/06/15 01:27:25;;;;;;;7.65;5.55;;;10.60;99.90;;;;;;5094375;28;20028;-53
2022/06/15 01:30:31;;;;;;;9.38;5.53;;;10.60;99.90;;;;;;5095160;28;20024;-54
2022/06/15 01:33:04;;;;;;;7.80;5.82;;;10.60;99.90;;;;;;5094646;28;20530;-53
2022/06/15 01:35:56;;;;;;;14.63;5.30;;;10.60;99.90;;;;;;5093379;28;20024;-52
2022/06/15 01:38:48;;;;;;;11.02;5.57;;;10.50;99.90;;;;;;5092873;28;20024;-52
2022/06/15 01:41:30;;;;;;;8.50;5.90;;;10.50;99.90;;;;;;5093635;28;20040;-52
2022/06/15 01:43:56;;;;;;;6.28;5.38;;;10.50;99.90;;;;;;5093223;28;20623;-53
2022/06/15 01:46:23;;;;;;;11.02;6.13;;;10.50;99.90;;;;;;5094356;28;20036;-53
2022/06/15 01:48:53;;;;;;;20.75;7.30;;;10.50;99.90;;;;;;5094022;28;20085;-53
2022/06/15 01:51:23;;;;;;;13.18;6.47;;;10.50;99.90;;;;;;5094327;28;20043;-52
2022/06/15 01:53:58;;;;;;;10.65;5.95;;;10.40;99.90;;;;;;5092714;28;20405;-54
2022/06/15 01:56:34;;;;;;;10.85;5.82;;;10.40;99.90;;;;;;5093014;28;20021;-54
2022/06/15 01:59:19;;;;;;;6.65;5.90;;;10.40;99.90;;;;;;5093531;28;20024;-51
2022/06/15 02:02:08;;;;;;;6.55;5.90;;;10.30;99.90;;;;;;5092174;28;20035;-50
2022/06/15 02:04:46;;;;;;;7.03;5.70;;;10.30;99.90;;;;;;5092689;28;20053;-51
2022/06/15 02:07:39;;;;;;;9.60;6.20;;;10.30;99.90;;;;;;5092702;28;20640;-52
2022/06/15 02:10:20;;;;;;;12.27;7.07;;;10.20;99.90;;;;;;5094201;28;20028;-50
2022/06/15 02:13:19;;;;;;;11.23;6.57;;;10.20;99.90;;;;;;5093685;28;20692;-51
2022/06/15 02:15:49;;;;;;;7.55;6.53;;;10.20;99.90;;;;;;5093494;28;20020;-52
2022/06/15 02:18:19;;;;;;;8.88;6.57;;;10.20;99.90;;;;;;5092749;28;20020;-53
2022/06/15 02:20:55;;;;;;;10.45;5.93;;;10.10;99.90;;;;;;5092452;28;20046;-53
2022/06/15 02:23:23;;;;;;;6.93;6.07;;;10.10;99.90;;;;;;5093296;28;20028;-51
2022/06/15 02:25:51;;;;;;;11.88;6.82;;;10.10;99.90;;;;;;5092345;28;20441;-51
2022/06/15 02:28:18;;;;;;;11.23;5.53;;;10.00;99.90;;;;;;5092215;28;20028;-50
2022/06/15 02:30:44;;;;;;;6.60;5.97;;;10.00;99.90;;;;;;5093486;28;20407;-51
2022/06/15 02:33:24;;;;;;;7.10;5.35;;;10.00;99.90;;;;;;5092477;28;20020;-52
2022/06/15 02:35:50;;;;;;;9.85;6.47;;;9.90;99.90;;;;;;5092873;28;20420;-53
2022/06/15 02:38:15;;;;;;;14.88;7.20;;;9.90;99.90;;;;;;5093376;28;20028;-52
2022/06/15 02:40:41;;;;;;;8.23;6.20;;;9.90;99.90;;;;;;5093140;28;20056;-54
2022/06/15 02:43:08;;;;;;;8.38;6.18;;;9.90;99.90;;;;;;5093147;28;20062;-53
2022/06/15 02:45:36;;;;;;;12.15;9.60;;;9.80;99.90;;;;;;5092258;28;20070;-51
2022/06/15 02:48:04;;;;;;;20.98;6.00;;;9.80;99.90;;;;;;5091154;28;20220;-51
2022/06/15 02:50:37;;;;;;;9.30;6.30;;;9.70;99.90;;;;;;5092498;28;20020;-50
2022/06/15 02:53:20;;;;;;;11.13;6.97;;;9.70;99.90;;;;;;5091755;28;20016;-51
2022/06/15 02:55:48;;;;;;;11.82;6.68;;;9.60;99.90;;;;;;5092092;28;20082;-53
2022/06/15 02:58:22;;;;;;;11.77;6.97;;;9.60;99.90;;;;;;5092345;28;20028;-54
2022/06/15 03:00:48;;;;;;;11.30;6.32;;;9.60;99.90;;;;;;5091170;28;20382;-50
2022/06/15 03:03:13;;;;;;;7.90;6.32;;;9.60;99.90;;;;;;5092620;28;20020;-51
2022/06/15 03:05:41;;;;;;;8.07;6.28;;;9.60;99.90;;;;;;5092661;28;20359;-51
2022/06/15 03:08:07;;;;;;;9.35;6.30;;;9.60;99.90;;;;;;5092177;28;20032;-52
2022/06/15 03:10:32;;;;;;;7.20;6.22;;;9.50;99.90;;;;;;5092425;28;20352;-52
2022/06/15 03:12:58;;;;;;;21.45;7.35;;;9.60;99.90;;;;;;5092598;28;20028;-50
2022/06/15 03:15:24;;;;;;;9.95;6.90;;;9.60;99.90;;;;;;5092151;28;20047;-52
2022/06/15 03:17:52;;;;;;;9.15;7.20;;;9.50;99.90;;;;;;5091912;28;20020;-51
2022/06/15 03:20:18;;;;;;;8.73;6.47;;;9.50;99.90;;;;;;5090848;28;20335;-51
2022/06/15 03:22:44;;;;;;;12.20;6.55;;;9.50;99.90;;;;;;5091072;28;20032;-51
2022/06/15 03:25:09;;;;;;;8.93;6.40;;;9.60;99.90;;;;;;5091301;28;20020;-51
2022/06/15 03:27:36;;;;;;;12.38;5.90;;;9.60;99.90;;;;;;5090987;28;20054;-51
2022/06/15 03:30:04;;;;;;;10.70;5.47;;;9.70;99.90;;;;;;5090558;28;20437;-53
2022/06/15 03:32:29;;;;;;;14.40;6.13;;;9.60;99.90;;;;;;5090994;28;20028;-50
2022/06/15 03:34:55;;;;;;;10.73;6.05;;;9.70;99.90;;;;;;5090932;28;20024;-50
2022/06/15 03:37:21;;;;;;;9.85;6.20;;;9.70;99.90;;;;;;5090851;28;20028;-51
2022/06/15 03:39:46;;;;;;;11.93;7.30;;;9.60;99.90;;;;;;5090761;28;20127;-51
2022/06/15 03:42:18;;;;;;;9.93;7.05;;;9.60;99.90;;;;;;5090649;28;20024;-50
2022/06/15 03:44:44;;;;;;;11.98;6.53;;;9.70;99.90;;;;;;5090325;28;20020;-50
2022/06/15 03:47:20;;;;;;;7.38;6.68;;;9.80;99.90;;;;;;5090545;28;20035;-50
2022/06/15 03:49:50;;;;;;;13.20;6.65;;;9.80;99.90;;;;;;5090581;28;20016;-50
2022/06/15 03:52:18;;;;;;;9.60;6.60;;;9.90;99.90;;;;;;5090589;28;20017;-50
2022/06/15 03:54:44;;;;;;;11.75;6.50;;;10.00;99.90;;;;;;5090832;28;20020;-51
2022/06/15 03:57:12;;;;;;;11.32;7.32;;;10.10;99.90;;;;;;5090607;28;20054;-52
2022/06/15 03:59:39;;;;;;;12.95;7.10;;;10.20;99.90;;;;;;5089925;28;20399;-51
2022/06/15 04:02:05;;;;;;;12.35;7.75;;;10.30;99.90;;;;;;5090467;28;20077;-52
2022/06/15 04:04:30;;;;;;;12.02;7.75;;;10.40;99.90;;;;;;5090805;28;20023;-50
2022/06/15 04:06:56;;;;;;;12.45;7.25;;;10.50;99.90;;;;;;5090531;28;20028;-52
2022/06/15 04:09:23;;;;;;;9.20;7.18;;;10.60;99.90;;;;;;5090803;28;20020;-54
2022/06/15 04:11:59;;;;;;;8.70;6.35;;;10.70;99.90;;;;;;5089373;28;20502;-50
2022/06/15 04:14:29;;;;;;;10.23;7.22;;;10.90;99.90;;;;;;5090248;28;20024;-52
2022/06/15 04:16:56;;;;;;;12.00;6.88;;;11.00;99.90;;;;;;5090525;28;20056;-51
2022/06/15 04:19:27;;;;;;;12.25;6.63;;;11.30;99.90;;;;;;5090226;28;20065;-53
2022/06/15 04:21:53;;;;;;;10.32;6.00;;;11.40;99.90;;;;;;5090461;28;20017;-52
2022/06/15 04:24:21;;;;;;;17.52;7.20;;;11.70;99.90;;;;;;5089230;28;20115;-50
2022/06/15 04:26:48;;;;;;;6.53;5.38;;;11.80;99.90;;;;;;5090233;28;20081;-53
2022/06/15 04:29:15;;;;;;;9.73;5.95;;;12.00;99.90;;;;;;5090052;28;20115;-52
2022/06/15 04:31:41;;;;;;;20.52;5.57;;;12.30;99.90;;;;;;5090589;28;20107;-52
2022/06/15 04:34:09;;;;;;;7.82;5.20;;;12.50;99.90;;;;;;5088889;28;20476;-50
2022/06/15 04:36:36;;;;;;;10.88;6.55;;;12.60;99.90;;;;;;5090167;28;20062;-51
2022/06/15 04:39:03;;;;;;;15.70;6.65;;;12.70;99.90;;;;;;5089645;28;20517;-50
2022/06/15 04:41:29;;;;;;;12.90;6.55;;;12.80;99.90;;;;;;5090160;28;20446;-50
2022/06/15 04:43:55;;;;;;;8.93;6.45;;;12.90;99.90;;;;;;5090045;28;20029;-52
2022/06/15 04:46:21;;;;;;;8.82;6.50;;;13.00;99.90;;;;;;5090095;28;20032;-50
2022/06/15 04:48:48;;;;;;;11.50;7.50;;;13.00;99.90;;;;;;5090057;28;20024;-52
2022/06/15 04:51:16;;;;;;;22.42;7.75;;;13.00;99.90;;;;;;5089840;28;20016;-53
2022/06/15 04:53:42;;;;;;;8.68;6.47;;;13.00;99.90;;;;;;5090252;28;20013;-52
2022/06/15 04:56:08;;;;;;;15.30;8.18;;;13.10;99.90;;;;;;5089869;28;20494;-54
2022/06/15 04:58:34;;;;;;;16.70;7.25;;;13.10;99.90;;;;;;5088829;28;20028;-52
2022/06/15 05:01:00;;;;;;;9.73;7.53;;;13.20;99.90;;;;;;5089911;28;20024;-52
2022/06/15 05:03:26;;;;;;;17.67;8.90;;;13.40;99.90;;;;;;5090441;28;20047;-50
2022/06/15 05:05:58;;;;;;;14.32;9.02;;;13.60;99.90;;;;;;5089765;28;20085;-51
2022/06/15 05:08:25;;;;;;;14.00;8.73;;;13.80;99.90;;;;;;5089710;28;20016;-51
2022/06/15 05:10:51;;;;;;;11.15;8.52;;;13.90;99.90;;;;;;5093031;28;20020;-52
2022/06/15 05:13:16;;;;;;;16.70;8.23;;;14.00;99.90;;;;;;5093594;28;20449;-55
2022/06/15 05:15:42;;;;;;;13.23;9.27;;;14.10;99.90;;;;;;5093638;28;20027;-53
2022/06/15 05:18:08;;;;;;;14.95;8.25;;;14.20;99.90;;;;;;5092190;28;20479;-52
2022/06/15 05:20:39;;;;;;;10.70;8.38;;;14.30;99.90;;;;;;5092107;28;20032;-51
2022/06/15 05:23:05;;;;;;;13.82;8.13;;;14.40;99.90;;;;;;5093170;28;20044;-51
2022/06/15 05:25:31;;;;;;;9.60;7.00;;;14.50;99.90;;;;;;5093268;28;20035;-52
2022/06/15 05:27:56;;;;;;;18.92;9.10;;;14.50;99.90;;;;;;5093178;28;20024;-51
2022/06/15 05:30:22;;;;;;;12.70;7.95;;;14.60;99.90;;;;;;5091693;28;20083;-53
2022/06/15 05:32:48;;;;;;;12.20;7.70;;;14.70;99.90;;;;;;5093165;28;20012;-51
2022/06/15 05:35:14;;;;;;;18.15;8.27;;;14.80;99.90;;;;;;5093046;28;20024;-51
2022/06/15 05:37:40;;;;;;;13.93;8.10;;;14.90;99.90;;;;;;5092545;28;20020;-51
2022/06/15 05:40:06;;;;;;;13.55;7.15;;;15.10;99.90;;;;;;5092917;28;20048;-54
2022/06/15 05:42:32;;;;;;;12.63;6.82;;;15.30;99.90;;;;;;5093052;28;20028;-53
2022/06/15 05:45:01;;;;;;;16.08;8.80;;;15.40;99.90;;;;;;5092985;28;20228;-51
2022/06/15 05:47:27;;;;;;;19.90;8.68;;;15.60;99.90;;;;;;5092755;28;20020;-52
2022/06/15 05:49:53;;;;;;;18.63;8.25;;;15.70;99.90;;;;;;5092836;28;20375;-52
2022/06/15 05:52:18;;;;;;;12.35;7.20;;;15.80;99.90;;;;;;5092714;28;20024;-52
2022/06/15 05:54:44;;;;;;;18.25;7.35;;;15.90;99.90;;;;;;5092106;28;20424;-51
2022/06/15 05:57:16;;;;;;;12.20;8.15;;;15.90;99.90;;;;;;5093129;28;20044;-54
2022/06/15 05:59:42;;;;;;;19.92;8.18;;;15.90;99.90;;;;;;5092438;28;20561;-50
2022/06/15 06:02:10;;;;;;;9.50;6.30;;;15.80;99.90;;;;;;5091320;28;20486;-53
2022/06/15 06:04:36;;;;;;;22.35;7.10;;;15.80;99.90;;;;;;5092882;28;20023;-51
2022/06/15 06:07:01;;;;;;;12.60;8.38;;;15.90;99.90;;;;;;5092546;28;20043;-54
2022/06/15 06:09:28;;;;;;;17.85;7.82;;;15.90;99.90;;;;;;5091219;28;20027;-53
2022/06/15 06:11:54;;;;;;;14.35;6.25;;;16.00;99.90;;;;;;5092268;28;20500;-52
2022/06/15 06:14:20;;;;;;;12.82;6.70;;;16.30;99.90;;;;;;5092375;28;20154;-52
2022/06/15 06:16:46;;;;;;;18.75;7.93;;;16.30;99.90;;;;;;5092282;28;20020;-52
2022/06/15 06:19:12;;;;;;;9.82;7.22;;;16.40;99.90;;;;;;5092193;28;20026;-53
2022/06/15 06:21:37;;;;;;;12.40;7.38;;;16.40;99.90;;;;;;5090025;28;20028;-52
2022/06/15 06:24:03;;;;;;;9.05;6.22;;;16.40;99.90;;;;;;5091927;28;20111;-52
2022/06/15 06:26:34;;;;;;;15.95;6.63;;;16.50;99.90;;;;;;5092069;28;20039;-51
2022/06/15 06:29:00;;;;;;;13.25;6.47;;;16.70;99.90;;;;;;5092139;28;20024;-52
2022/06/15 06:31:27;;;;;;;69.63;8.65;;;16.90;99.90;;;;;;5091978;28;20040;-53
2022/06/15 06:33:53;;;;;;;115.53;10.30;;;17.20;99.90;;;;;;5091997;28;20027;-54
2022/06/15 06:36:32;;;;;;;14.93;6.85;;;17.40;99.90;;;;;;5091810;28;20031;-51
2022/06/15 06:38:59;;;;;;;11.65;6.38;;;17.60;99.90;;;;;;5091663;28;20111;-55
2022/06/15 06:41:27;;;;;;;16.08;6.97;;;17.70;99.90;;;;;;5091814;28;20027;-52
2022/06/15 06:43:53;;;;;;;24.35;7.05;;;17.90;99.90;;;;;;5091694;28;20028;-53
2022/06/15 06:46:19;;;;;;;15.57;5.97;;;18.10;99.90;;;;;;5091592;28;20437;-51
2022/06/15 06:48:46;;;;;;;18.35;5.80;;;18.20;99.90;;;;;;5091683;28;20255;-53
2022/06/15 06:51:11;;;;;;;11.23;6.55;;;18.20;99.90;;;;;;5091547;28;20450;-50
2022/06/15 06:53:37;;;;;;;10.18;5.85;;;18.30;99.90;;;;;;5091745;28;20096;-53
2022/06/15 06:56:05;;;;;;;12.48;6.53;;;18.30;99.90;;;;;;5091415;28;20028;-55
2022/06/15 06:58:31;;;;;;;7.97;6.03;;;18.40;99.90;;;;;;5091557;28;20028;-52
2022/06/15 07:00:57;;;;;;;10.73;5.50;;;18.40;99.90;;;;;;5091642;28;20027;-54
2022/06/15 07:03:23;;;;;;;8.57;6.00;;;18.40;99.90;;;;;;5091538;28;20455;-51
2022/06/15 07:05:48;;;;;;;10.82;6.03;;;18.50;99.90;;;;;;5090973;28;20032;-52
2022/06/15 07:08:14;;;;;;;16.75;6.90;;;18.50;99.90;;;;;;5091079;28;20115;-51
2022/06/15 07:10:41;;;;;;;11.80;6.28;;;18.80;99.90;;;;;;5091393;28;20437;-52
2022/06/15 07:13:07;;;;;;;12.63;6.10;;;19.00;99.90;;;;;;5091273;28;20399;-55
2022/06/15 07:15:33;;;;;;;9.88;5.85;;;19.10;99.90;;;;;;5091273;28;20043;-53
2022/06/15 07:18:00;;;;;;;14.02;6.32;;;19.20;99.90;;;;;;5091338;28;20016;-51
2022/06/15 07:20:28;;;;;;;8.68;5.30;;;19.30;99.90;;;;;;5089859;28;20641;-52
2022/06/15 07:22:54;;;;;;;12.93;5.55;;;19.30;99.90;;;;;;5090945;28;20485;-51
2022/06/15 07:25:20;;;;;;;12.30;5.97;;;19.20;99.90;;;;;;5090682;28;20418;-53
2022/06/15 07:27:47;;;;;;;11.15;5.38;;;19.20;99.90;;;;;;5091096;28;20050;-50
2022/06/15 07:30:16;;;;;;;9.10;6.13;;;19.30;99.90;;;;;;5090987;28;20016;-54
2022/06/15 07:32:43;;;;;;;11.27;5.70;;;19.50;99.90;;;;;;5090952;28;20418;-51
2022/06/15 07:35:38;;;;;;;8.50;5.53;;;19.70;99.90;;;;;;5090880;28;20382;-52
2022/06/15 07:38:05;;;;;;;10.80;6.10;;;19.70;99.90;;;;;;5085313;28;20432;-55
2022/06/15 07:40:31;;;;;;;12.90;5.10;;;19.70;99.90;;;;;;5090747;28;20048;-53
2022/06/15 07:42:57;;;;;;;9.23;5.20;;;19.80;99.90;;;;;;5090708;28;20070;-51
2022/06/15 07:45:24;;;;;;;11.00;4.82;;;19.80;99.90;;;;;;5090655;28;20618;-54
2022/06/15 07:50:41;;;;;;;10.60;4.78;;;20.30;99.90;;;;;;5091171;28;20117;-51
2022/06/15 07:53:10;;;;;;;10.80;5.20;;;20.30;99.90;;;;;;5090595;28;20013;-54
2022/06/15 07:55:39;;;;;;;9.57;5.55;;;20.30;99.90;;;;;;5090142;28;20224;-51
2022/06/15 07:58:06;;;;;;;15.23;5.30;;;20.40;99.90;;;;;;5090697;28;20502;-51
2022/06/15 08:00:33;;;;;;;9.18;4.75;;;20.50;99.90;;;;;;5090674;28;20081;-53
2022/06/15 08:02:59;;;;;;;18.23;4.85;;;20.50;99.90;;;;;;5090600;28;20576;-55
2022/06/15 08:05:27;;;;;;;13.90;7.45;;;20.40;99.90;;;;;;5090366;28;20048;-51
2022/06/15 08:07:53;;;;;;;7.75;5.30;;;20.50;99.90;;;;;;5090385;28;20043;-53
2022/06/15 08:10:21;;;;;;;13.80;5.43;;;20.60;99.90;;;;;;5090687;28;20020;-54
2022/06/15 08:12:47;;;;;;;14.15;12.18;;;20.80;99.90;;;;;;5090437;28;20364;-51
2022/06/15 08:15:13;;;;;;;9.23;5.00;;;21.00;99.30;;;;;;5090339;28;20016;-53
2022/06/15 08:17:54;;;;;;;17.50;5.82;;;21.00;99.90;;;;;;5089161;28;20020;-52
2022/06/15 08:20:26;;;;;;;6.70;5.05;;;21.00;99.90;;;;;;5090418;28;20395;-52
2022/06/15 08:22:58;;;;;;;8.18;5.05;;;21.00;99.30;;;;;;5090618;28;20112;-51
2022/06/15 08:25:28;;;;;;;8.68;5.38;;;21.00;98.90;;;;;;5089025;28;20437;-53
2022/06/15 08:27:55;;;;;;;8.73;5.22;;;21.20;99.90;;;;;;5090213;28;20028;-52
2022/06/15 08:30:21;;;;;;;11.73;5.40;;;21.10;99.70;;;;;;5090449;28;20378;-54
2022/06/15 08:32:48;;;;;;;10.70;5.22;;;21.40;99.90;;;;;;5090298;28;20016;-53
2022/06/15 08:35:14;;;;;;;8.80;5.15;;;21.60;99.30;;;;;;5089894;28;20020;-51
2022/06/15 08:37:40;;;;;;;12.18;5.65;;;21.50;98.70;;;;;;5088941;28;20017;-51
2022/06/15 08:40:07;;;;;;;11.45;5.30;;;21.70;99.90;;;;;;5090229;28;20052;-51
2022/06/15 08:42:57;;;;;;;8.57;5.65;;;21.80;98.60;;;;;;5090154;28;20089;-53
2022/06/15 08:45:36;;;;;;;12.88;4.82;;;21.90;99.10;;;;;;5089945;28;20066;-52
2022/06/15 08:48:22;;;;;;;8.43;5.20;;;22.10;98.60;;;;;;5094072;28;20031;-51
2022/06/15 08:51:25;;;;;;;13.50;5.00;;;22.30;99.80;;;;;;5094285;28;20051;-55
2022/06/15 08:54:29;;;;;;;10.18;4.72;;;22.40;98.40;;;;;;5090620;28;20116;-55
2022/06/15 08:57:29;;;;;;;11.57;4.40;;;22.50;97.40;;;;;;5071058;28;20159;-54
2022/06/15 09:00:02;;;;;;;9.40;4.43;;;22.70;98.20;;;;;;5070973;28;20017;-53
2022/06/15 09:02:35;;;;;;;9.23;4.57;;;22.80;99.10;;;;;;5071242;28;20047;-54
2022/06/15 09:05:24;;;;;;;9.60;4.78;;;22.80;98.60;;;;;;5081784;28;20024;-51
2022/06/15 09:07:59;;;;;;;7.47;4.60;;;23.00;96.90;;;;;;5093623;28;20028;-53
2022/06/15 09:10:28;;;;;;;9.23;4.03;;;22.90;96.60;;;;;;5093668;28;20016;-51
2022/06/15 09:13:06;;;;;;;9.30;4.03;;;22.90;96.80;;;;;;5093795;28;20016;-52
2022/06/15 09:15:39;;;;;;;8.95;4.47;;;23.00;95.80;;;;;;5094069;28;20077;-51
2022/06/15 09:18:12;;;;;;;7.45;3.95;;;23.20;96.80;;;;;;5093148;28;20022;-55
2022/06/15 09:20:42;;;;;;;;;;;23.40;96.40;;;;;;5093706;28;20027;-54
2022/06/15 09:23:17;;;;;;;13.25;4.00;;;23.60;96.00;;;;;;5093398;28;19995;-55
2022/06/15 09:25:48;;;;;;;6.45;3.97;;;23.60;95.20;;;;;;5093023;28;20095;-55
2022/06/15 09:28:28;;;;;;;10.60;3.65;;;23.90;94.60;;;;;;5091655;28;20036;-54
2022/06/15 09:30:58;;;;;;;13.10;3.72;;;23.90;94.80;;;;;;5093219;28;20027;-56
2022/06/15 09:33:33;;;;;;;7.97;3.92;;;23.80;94.90;;;;;;5091899;28;20023;-55
2022/06/15 09:36:11;;;;;;;8.02;4.13;;;23.80;93.10;;;;;;5093185;28;20110;-55
2022/06/15 09:38:38;;;;;;;9.88;4.10;;;24.00;94.00;;;;;;5093160;28;20447;-52
2022/06/15 09:41:56;;;;;;;7.68;3.50;;;24.30;93.80;;;;;;5092895;28;20398;-54
2022/06/15 09:44:34;;;;;;;6.22;3.92;;;24.50;91.90;;;;;;5087766;28;20046;-55
2022/06/15 09:47:33;;;;;;;10.02;4.03;;;24.50;94.80;;;;;;5092792;28;20471;-55
2022/06/15 09:50:20;;;;;;;7.53;3.80;;;24.70;94.00;;;;;;5092599;28;20034;-56
2022/06/15 09:53:15;;;;;;;8.60;4.03;;;24.90;95.20;;;;;;5092830;28;20386;-53
2022/06/15 09:56:07;;;;;;;5.78;3.80;;;25.30;94.60;;;;;;5092061;28;20020;-54
2022/06/15 09:58:58;;;;;;;8.93;2.85;;;25.10;91.30;;;;;;5092901;28;20063;-53
2022/06/15 10:01:28;;;;;;;10.93;4.85;;;24.70;91.20;;;;;;5084834;28;20028;-53
2022/06/15 10:03:57;;;;;;;7.57;3.42;;;24.90;92.20;;;;;;5092443;28;20623;-54
2022/06/15 10:06:37;;;;;;;7.05;3.90;;;25.00;93.20;;;;;;5092226;28;20118;-53
2022/06/15 10:09:07;;;;;;;16.75;3.95;;;25.30;93.00;;;;;;5092634;28;20020;-52
2022/06/15 10:11:40;;;;;;;9.32;3.92;;;25.40;91.80;;;;;;5092439;28;20069;-54
2022/06/15 10:14:34;;;;;;;12.32;3.30;;;25.30;90.30;;;;;;5092289;28;20101;-54
2022/06/15 10:17:17;;;;;;;11.90;3.80;;;25.50;90.60;;;;;;5091153;28;20042;-51
2022/06/15 10:19:47;;;;;;;10.82;3.60;;;25.60;89.00;;;;;;5092772;28;20530;-52
2022/06/15 10:22:25;;;;;;;8.82;2.70;;;25.70;90.50;;;;;;5092074;28;20020;-51
2022/06/15 10:24:52;;;;;;;3.92;2.75;;;25.80;86.50;;;;;;5092277;28;20247;-55
2022/06/15 10:27:20;;;;;;;12.77;3.22;;;26.00;88.10;;;;;;5092149;28;20467;-53
2022/06/15 10:30:02;;;;;;;6.80;3.22;;;26.10;86.00;;;;;;5092247;28;20032;-54
2022/06/15 10:32:30;;;;;;;8.02;3.50;;;26.10;86.80;;;;;;5092030;28;20028;-52
2022/06/15 10:35:05;;;;;;;6.03;3.22;;;26.00;88.30;;;;;;5092400;28;20020;-53
2022/06/15 10:37:44;;;;;;;10.18;3.38;;;26.30;90.20;;;;;;5092311;28;20110;-52
2022/06/15 10:40:33;;;;;;;8.13;3.22;;;26.50;88.40;;;;;;5091749;28;20380;-54
2022/06/15 10:43:06;;;;;;;8.77;3.55;;;26.80;90.30;;;;;;5091876;28;20031;-55
2022/06/15 10:45:42;;;;;;;8.45;2.65;;;26.80;87.10;;;;;;5090467;28;20028;-57
2022/06/15 10:48:16;;;;;;;16.02;3.75;;;26.90;83.70;;;;;;5091676;28;20062;-52
2022/06/15 10:51:09;;;;;;;6.57;2.53;;;27.00;84.80;;;;;;5091797;28;20020;-53
2022/06/15 10:53:38;;;;;;;8.35;3.22;;;27.40;87.00;;;;;;5091775;28;20547;-53
2022/06/15 11:02:07;;;;;;;7.13;2.63;;;26.90;76.20;;;;;;5091664;28;20442;-53
2022/06/15 11:04:45;;;;;;;7.15;3.25;;;27.00;77.30;;;;;;5091570;28;20119;-52
2022/06/15 11:07:34;;;;;;;3.72;2.05;;;27.50;83.30;;;;;;5090859;28;20038;-54
2022/06/15 11:10:23;;;;;;;8.10;2.67;;;27.80;77.90;;;;;;5091457;28;20040;-54
2022/06/15 11:12:56;;;;;;;4.40;2.50;;;27.80;75.30;;;;;;5091035;28;20067;-54
2022/06/15 11:18:01;;;;;;;7.35;2.90;;;27.50;69.20;;;;;;5091188;28;20180;-55
2022/06/15 11:18:22;;;;;;;;;;;27.70;71.90;;;;;;5091388;28;20481;-54
2022/06/15 11:21:05;;;;;;;7.10;2.30;;;27.90;72.10;;;;;;5089746;28;20289;-52
2022/06/15 11:23:51;;;;;;;4.25;2.17;;;28.10;74.70;;;;;;5091528;28;20020;-56
2022/06/15 11:29:48;;;;;;;9.40;2.40;;;28.50;68.20;;;;;;5090710;28;20568;-55
2022/06/15 11:32:20;;;;;;;5.20;1.92;;;28.30;67.00;;;;;;5091028;28;20020;-55
2022/06/15 11:35:18;;;;;;;4.55;2.25;;;28.50;67.40;;;;;;5090914;28;20016;-56
2022/06/15 11:38:20;;;;;;;7.13;2.78;;;28.70;68.60;;;;;;5089769;28;20031;-54
2022/06/15 11:40:54;;;;;;;6.03;2.70;;;28.50;68.80;;;;;;5048009;28;20076;-52
2022/06/15 11:43:36;;;;;;;5.13;2.50;;;28.50;67.40;;;;;;5084561;28;20038;-56
2022/06/15 11:46:34;;;;;;;9.52;2.45;;;28.40;65.30;;;;;;5090753;28;20345;-55
2022/06/15 11:49:08;;;;;;;4.43;2.63;;;28.30;66.80;;;;;;5090051;28;20039;-54
2022/06/15 11:52:03;;;;;;;6.22;2.05;;;28.50;64.20;;;;;;5090731;28;20024;-54
2022/06/15 11:54:50;;;;;;;5.38;2.13;;;28.90;65.40;;;;;;5090530;28;20028;-55
2022/06/15 11:57:25;;;;;;;4.25;1.90;;;29.00;63.70;;;;;;5090411;28;20016;-56
2022/06/15 11:59:57;;;;;;;2.95;1.55;;;29.30;61.50;;;;;;5090625;28;20020;-55
2022/06/15 12:02:40;;;;;;;4.60;1.92;;;29.30;60.10;;;;;;5090351;28;20031;-55
2022/06/15 12:05:09;;;;;;;;;;;29.00;61.60;;;;;;5091073;28;20024;-53
2022/06/15 12:07:56;;;;;;;3.60;1.50;;;29.10;62.00;;;;;;5090741;28;20341;-53
2022/06/15 12:10:30;;;;;;;6.65;2.75;;;29.50;65.40;;;;;;5090359;28;20016;-56
2022/06/15 12:13:17;;;;;;;4.18;1.70;;;29.80;63.50;;;;;;5090330;28;20106;-52
2022/06/15 12:15:54;;;;;;;5.75;2.10;;;29.90;59.90;;;;;;5090496;28;20035;-54
2022/06/15 12:18:43;;;;;;;9.93;2.47;;;30.40;61.20;;;;;;5090282;28;20498;-53
2022/06/15 12:21:22;;;;;;;5.25;1.92;;;30.70;59.50;;;;;;5093115;28;20473;-54
2022/06/15 12:23:59;;;;;;;4.70;1.80;;;31.40;55.40;;;;;;5094664;28;20026;-55
2022/06/15 12:26:28;;;;;;;4.47;1.92;;;31.70;55.30;;;;;;5094444;28;20028;-56
2022/06/15 12:29:19;;;;;;;3.75;1.70;;;32.20;55.40;;;;;;5094425;28;20017;-55
2022/06/15 12:35:11;;;;;;;5.38;1.95;;;32.20;49.40;;;;;;5086178;28;20050;-57
2022/06/15 12:37:55;;;;;;;4.00;2.05;;;32.10;49.90;;;;;;5080551;28;20472;-57
2022/06/15 12:40:31;;;;;;;3.70;1.27;;;32.80;47.30;;;;;;5077058;28;20491;-55
2022/06/15 12:43:27;;;;;;;6.45;1.83;;;33.10;48.00;;;;;;5095565;28;20027;-55
2022/06/15 12:46:10;;;;;;;5.97;1.45;;;33.20;48.40;;;;;;5092409;28;20032;-55
2022/06/15 12:48:35;;;;;;;;;;;34.00;46.40;;;;;;5095824;28;20024;-56
2022/06/15 12:51:31;;;;;;;2.58;1.42;;;34.00;48.10;;;;;;5095132;28;19911;-56
2022/06/15 12:53:59;;;;;;;7.13;1.88;;;34.40;47.00;;;;;;5095377;28;20039;-55
2022/06/15 12:56:29;;;;;;;11.63;1.42;;;34.70;44.50;;;;;;5088853;28;20031;-56
2022/06/15 12:59:04;;;;;;;4.53;1.63;;;35.10;45.30;;;;;;5104547;28;20031;-54
2022/06/15 13:01:57;;;;;;;5.68;1.77;;;35.50;47.20;;;;;;5105266;28;20061;-55
2022/06/15 13:04:37;;;;;;;2.15;1.30;;;34.80;45.20;;;;;;5089426;28;20031;-55
2022/06/15 13:07:23;;;;;;;4.30;1.50;;;34.40;45.10;;;;;;5103725;28;20165;-55
2022/06/15 13:10:26;;;;;;;2.50;1.50;;;35.60;41.20;;;;;;5097405;28;20023;-55
2022/06/15 13:13:00;;;;;;;8.32;1.42;;;35.70;40.90;;;;;;5061349;28;20491;-55
2022/06/15 13:15:54;;;;;;;8.07;1.08;;;34.80;39.10;;;;;;5080725;28;20024;-56
2022/06/15 13:19:03;;;;;;;4.85;1.00;;;34.60;37.10;;;;;;5083960;28;20170;-55
2022/06/15 13:21:50;;;;;;;4.22;1.45;;;35.30;40.90;;;;;;5092691;28;20036;-55
2022/06/15 13:24:16;;;;;;;3.70;1.20;;;34.70;39.30;;;;;;5083554;28;20020;-56
2022/06/15 13:26:42;;;;;;;6.70;1.80;;;35.00;40.00;;;;;;5084393;28;20493;-55
2022/06/15 13:29:10;;;;;;;5.47;1.02;;;35.30;40.60;;;;;;5082643;28;20043;-55